createdAt,value
2022-08-19T00:00:53.488Z,10.40
2022-08-19T00:03:24.352Z,10.13
2022-08-19T00:05:55.821Z,9.18
2022-08-19T00:08:27.081Z,9.68
2022-08-19T00:10:58.039Z,9.88
2022-08-19T00:13:30.740Z,9.43
2022-08-19T00:16:02.103Z,9.65
2022-08-19T00:18:35.960Z,9.73
2022-08-19T00:21:08.656Z,9.93
2022-08-19T00:23:40.081Z,10.13
2022-08-19T00:26:11.897Z,9.75
2022-08-19T00:28:43.360Z,9.65
2022-08-19T00:31:14.191Z,9.90
2022-08-19T00:33:45.629Z,9.55
2022-08-19T00:36:17.838Z,9.33
2022-08-19T00:38:48.996Z,9.75
2022-08-19T00:41:22.524Z,9.53
2022-08-19T00:44:13.905Z,9.65
2022-08-19T00:46:55.501Z,10.50
2022-08-19T00:49:31.283Z,9.85
2022-08-19T00:52:11.030Z,9.75
2022-08-19T00:54:43.600Z,9.88
2022-08-19T00:57:17.395Z,9.68
2022-08-19T01:00:00.530Z,9.93
2022-08-19T01:02:25.689Z,9.78
2022-08-19T01:04:56.888Z,10.00
2022-08-19T01:07:28.059Z,9.63
2022-08-19T01:10:02.036Z,9.43
2022-08-19T01:12:33.411Z,9.78
2022-08-19T01:15:05.861Z,9.93
2022-08-19T01:17:38.624Z,10.13
2022-08-19T01:20:16.967Z,10.35
2022-08-19T01:22:54.039Z,10.40
2022-08-19T01:25:30.999Z,9.73
2022-08-19T01:28:07.214Z,10.03
2022-08-19T01:30:37.311Z,9.85
2022-08-19T01:33:08.366Z,10.45
2022-08-19T01:35:40.958Z,10.45
2022-08-19T01:38:14.968Z,9.85
2022-08-19T01:40:46.569Z,10.72
2022-08-19T01:43:17.718Z,10.00
2022-08-19T01:45:50.298Z,10.43
2022-08-19T01:48:21.261Z,10.60
2022-08-19T01:50:52.322Z,10.35
2022-08-19T01:53:23.198Z,10.82
2022-08-19T01:55:55.870Z,10.58
2022-08-19T01:58:31.221Z,10.10
2022-08-19T02:03:32.213Z,10.18
2022-08-19T02:06:06.504Z,10.03
2022-08-19T02:08:39.447Z,10.65
2022-08-19T02:11:10.613Z,10.10
2022-08-19T02:13:41.980Z,10.50
2022-08-19T02:16:13.170Z,9.88
2022-08-19T02:18:44.090Z,10.10
2022-08-19T02:21:15.767Z,9.98
2022-08-19T02:23:48.581Z,10.58
2022-08-19T02:26:21.269Z,10.00
2022-08-19T02:28:52.620Z,10.40
2022-08-19T02:31:25.808Z,9.98
2022-08-19T02:33:58.717Z,10.32
2022-08-19T02:36:30.283Z,10.75
2022-08-19T02:39:01.571Z,10.58
2022-08-19T02:41:35.281Z,9.30
2022-08-19T02:44:30.246Z,10.32
2022-08-19T02:46:41.380Z,10.18
2022-08-19T02:49:13.468Z,9.85
2022-08-19T02:51:46.440Z,10.00
2022-08-19T02:54:17.831Z,10.20
2022-08-19T02:56:49.298Z,9.93
2022-08-19T02:59:20.298Z,10.55
2022-08-19T03:01:52.860Z,10.23
2022-08-19T03:04:24.837Z,9.73
2022-08-19T03:06:59.575Z,9.85
2022-08-19T03:09:28.796Z,10.03
2022-08-19T03:11:59.854Z,9.83
2022-08-19T03:14:35.341Z,9.90
2022-08-19T03:17:07.578Z,10.43
2022-08-19T03:19:39.768Z,9.90
2022-08-19T03:22:10.876Z,9.55
2022-08-19T03:24:41.997Z,9.90
2022-08-19T03:27:13.777Z,10.00
2022-08-19T03:29:46.460Z,10.05
2022-08-19T03:32:32.675Z,9.83
2022-08-19T03:34:52.367Z,9.58
2022-08-19T03:37:23.948Z,9.70
2022-08-19T03:39:55.114Z,9.93
2022-08-19T03:42:38.779Z,9.85
2022-08-19T03:45:00.384Z,10.15
2022-08-19T03:47:31.968Z,9.23
2022-08-19T03:50:03.658Z,10.85
2022-08-19T03:52:37.339Z,9.85
2022-08-19T03:55:09.103Z,9.93
2022-08-19T03:57:39.976Z,9.93
2022-08-19T04:00:13.996Z,10.28
2022-08-19T04:02:58.166Z,10.83
2022-08-19T04:05:18.067Z,10.28
2022-08-19T04:07:49.128Z,9.78
2022-08-19T04:10:21.095Z,10.23
2022-08-19T04:12:52.258Z,10.28
2022-08-19T04:15:23.422Z,9.98
2022-08-19T04:17:54.478Z,10.35
2022-08-19T04:20:25.537Z,10.30
2022-08-19T04:22:56.597Z,10.15
2022-08-19T04:25:27.647Z,9.95
2022-08-19T04:27:58.402Z,10.30
2022-08-19T04:30:29.490Z,9.88
2022-08-19T04:33:00.772Z,9.95
2022-08-19T04:35:33.529Z,9.55
2022-08-19T04:38:04.488Z,9.98
2022-08-19T04:40:53.969Z,10.40
2022-08-19T04:43:24.817Z,10.88
2022-08-19T04:45:56.805Z,10.15
2022-08-19T04:48:29.098Z,10.45
2022-08-19T04:51:01.653Z,10.00
2022-08-19T04:53:35.544Z,9.68
2022-08-19T04:56:12.858Z,9.80
2022-08-19T04:58:45.848Z,10.10
2022-08-19T05:01:19.556Z,9.78
2022-08-19T05:03:51.286Z,10.15
2022-08-19T05:06:23.849Z,10.00
2022-08-19T05:08:56.252Z,9.70
2022-08-19T05:11:33.042Z,10.03
2022-08-19T05:14:04.206Z,9.80
2022-08-19T05:16:36.003Z,9.90
2022-08-19T05:19:25.142Z,9.93
2022-08-19T05:22:15.470Z,9.25
2022-08-19T05:25:09.279Z,9.95
2022-08-19T05:27:18.766Z,9.63
2022-08-19T05:29:51.158Z,9.65
2022-08-19T05:32:23.137Z,9.08
2022-08-19T05:34:54.092Z,8.95
2022-08-19T05:37:26.998Z,9.60
2022-08-19T05:39:58.621Z,9.58
2022-08-19T05:42:29.620Z,9.08
2022-08-19T05:45:00.821Z,9.40
2022-08-19T05:47:31.703Z,9.33
2022-08-19T05:50:05.063Z,8.98
2022-08-19T05:52:37.834Z,9.68
2022-08-19T05:55:09.798Z,9.65
2022-08-19T05:57:42.130Z,9.00
2022-08-19T06:00:14.349Z,9.30
2022-08-19T06:02:45.326Z,9.40
2022-08-19T06:05:16.412Z,8.98
2022-08-19T06:07:47.488Z,9.08
2022-08-19T06:10:18.631Z,9.05
2022-08-19T06:12:50.091Z,9.35
2022-08-19T06:15:21.054Z,9.45
2022-08-19T06:17:52.190Z,8.88
2022-08-19T06:20:45.939Z,9.35
2022-08-19T06:22:56.086Z,9.10
2022-08-19T06:25:30.440Z,8.55
2022-08-19T06:28:14.553Z,9.55
2022-08-19T06:30:35.288Z,8.83
2022-08-19T06:33:09.667Z,8.45
2022-08-19T06:38:19.201Z,8.93
2022-08-19T06:40:50.271Z,8.58
2022-08-19T06:43:21.118Z,8.90
2022-08-19T06:45:53.961Z,8.48
2022-08-19T06:48:24.772Z,8.60
2022-08-19T06:50:57.301Z,8.70
2022-08-19T06:53:29.650Z,8.68
2022-08-19T06:56:02.213Z,8.85
2022-08-19T06:58:36.478Z,8.98
2022-08-19T07:01:09.240Z,8.33
2022-08-19T07:03:41.216Z,8.68
2022-08-19T07:06:39.402Z,9.08
2022-08-19T07:08:50.136Z,9.03
2022-08-19T07:11:22.509Z,8.93
2022-08-19T07:13:56.812Z,9.50
2022-08-19T07:16:29.723Z,8.80
2022-08-19T07:19:11.870Z,9.30
2022-08-19T07:21:33.987Z,8.88
2022-08-19T07:24:07.332Z,8.90
2022-08-19T07:26:44.395Z,8.95
2022-08-19T07:29:16.389Z,8.48
2022-08-19T07:31:47.773Z,9.28
2022-08-19T07:34:21.338Z,10.13
2022-08-19T07:36:54.703Z,8.90
2022-08-19T07:39:28.822Z,9.03
2022-08-19T07:42:01.560Z,9.20
2022-08-19T07:44:33.079Z,8.60
2022-08-19T07:47:05.732Z,8.60
2022-08-19T07:49:37.245Z,8.98
2022-08-19T07:52:10.621Z,8.68
2022-08-19T07:54:42.547Z,9.10
2022-08-19T07:57:13.648Z,8.43
2022-08-19T07:59:44.871Z,8.58
2022-08-19T08:02:16.232Z,9.00
2022-08-19T08:05:05.399Z,9.63
2022-08-19T08:07:56.073Z,9.05
2022-08-19T08:10:27.109Z,8.95
2022-08-19T08:13:10.392Z,9.15
2022-08-19T08:15:31.355Z,8.73
2022-08-19T08:18:02.231Z,8.65
2022-08-19T08:20:33.671Z,9.40
2022-08-19T08:23:23.084Z,8.95
2022-08-19T08:26:00.470Z,9.20
2022-08-19T08:28:31.674Z,9.18
2022-08-19T08:31:02.836Z,9.30
2022-08-19T08:33:36.390Z,9.00
2022-08-19T08:36:09.291Z,9.10
2022-08-19T08:38:41.787Z,9.23
2022-08-19T08:41:39.455Z,9.30
2022-08-19T08:44:26.887Z,9.35
2022-08-19T08:47:04.170Z,9.30
2022-08-19T08:50:03.293Z,9.48
2022-08-19T08:52:44.658Z,9.18
2022-08-19T08:55:21.026Z,9.50
2022-08-19T08:57:56.643Z,8.90
2022-08-19T09:00:37.078Z,9.25
2022-08-19T09:03:16.706Z,9.33
2022-08-19T09:06:11.848Z,8.93
2022-08-19T09:08:44.111Z,8.90
2022-08-19T09:11:42.374Z,9.85
2022-08-19T09:14:02.788Z,9.10
2022-08-19T09:16:37.933Z,9.33
2022-08-19T09:21:40.818Z,9.68
2022-08-19T09:24:12.729Z,9.18
2022-08-19T09:26:48.709Z,10.10
2022-08-19T09:29:18.561Z,9.27
2022-08-19T09:31:49.720Z,9.68
2022-08-19T09:34:22.163Z,9.38
2022-08-19T09:36:55.029Z,8.88
2022-08-19T09:39:26.026Z,9.05
2022-08-19T09:41:59.054Z,9.10
2022-08-19T09:44:30.261Z,8.60
2022-08-19T09:47:01.921Z,8.98
2022-08-19T09:49:33.558Z,9.03
2022-08-19T09:52:05.339Z,8.33
2022-08-19T09:54:37.155Z,8.88
2022-08-19T09:57:08.656Z,8.85
2022-08-19T09:59:41.431Z,8.60
2022-08-19T10:02:13.447Z,8.70
2022-08-19T10:05:04.453Z,8.63
2022-08-19T10:07:37.128Z,8.60
2022-08-19T10:10:11.050Z,8.65
2022-08-19T10:12:48.815Z,8.90
2022-08-19T10:15:28.852Z,8.53
2022-08-19T10:17:56.236Z,8.38
2022-08-19T10:20:28.673Z,8.50
2022-08-19T10:23:01.447Z,7.95
2022-08-19T10:25:35.599Z,7.85
2022-08-19T10:28:10.558Z,8.38
2022-08-19T10:30:42.852Z,8.83
2022-08-19T10:33:15.430Z,8.03
2022-08-19T10:35:56.442Z,8.05
2022-08-19T10:38:20.969Z,7.72
2022-08-19T10:40:54.419Z,8.15
2022-08-19T10:43:26.899Z,7.78
2022-08-19T10:45:59.860Z,8.00
2022-08-19T10:48:31.097Z,8.23
2022-08-19T10:51:22.905Z,7.80
2022-08-19T10:53:53.841Z,7.80
2022-08-19T10:56:43.359Z,7.78
2022-08-19T10:59:15.491Z,8.03
2022-08-19T11:01:48.091Z,8.08
2022-08-19T11:04:29.633Z,7.27
2022-08-19T11:06:58.509Z,7.72
2022-08-19T11:09:34.348Z,7.87
2022-08-19T11:14:38.379Z,7.62
2022-08-19T11:17:09.587Z,8.10
2022-08-19T11:19:40.655Z,6.90
2022-08-19T11:22:12.445Z,6.50
2022-08-19T11:24:45.273Z,7.58
2022-08-19T11:27:16.517Z,7.17
2022-08-19T11:29:47.490Z,7.12
2022-08-19T11:32:18.884Z,6.97
2022-08-19T11:34:50.130Z,7.47
2022-08-19T11:37:21.299Z,7.15
2022-08-19T11:39:53.513Z,6.90
2022-08-19T11:42:43.012Z,6.50
2022-08-19T11:45:15.615Z,7.12
2022-08-19T11:47:48.646Z,7.45
2022-08-19T11:50:20.249Z,7.37
2022-08-19T11:52:51.498Z,7.42
2022-08-19T11:55:22.794Z,7.33
2022-08-19T11:57:53.953Z,7.37
2022-08-19T12:00:25.290Z,6.80
2022-08-19T12:02:56.726Z,7.28
2022-08-19T12:05:27.655Z,6.95
2022-08-19T12:07:58.861Z,7.03
2022-08-19T12:10:31.442Z,6.80
2022-08-19T12:13:03.239Z,6.87
2022-08-19T12:15:42.717Z,7.35
2022-08-19T12:18:15.624Z,6.72
2022-08-19T12:20:49.029Z,7.17
2022-08-19T12:23:20.305Z,6.87
2022-08-19T12:25:53.092Z,7.22
2022-08-19T12:28:26.667Z,6.60
2022-08-19T12:31:00.043Z,6.22
2022-08-19T12:33:33.866Z,6.72
2022-08-19T12:36:07.407Z,6.00
2022-08-19T12:38:39.161Z,6.50
2022-08-19T12:41:13.572Z,6.33
2022-08-19T12:43:46.150Z,6.90
2022-08-19T12:46:19.118Z,6.80
2022-08-19T12:48:54.106Z,6.83
2022-08-19T12:51:23.133Z,6.37
2022-08-19T12:53:54.314Z,6.70
2022-08-19T12:56:25.333Z,6.40
2022-08-19T12:58:57.254Z,6.45
2022-08-19T13:01:29.307Z,7.15
2022-08-19T13:04:01.019Z,6.03
2022-08-19T13:06:31.990Z,6.78
2022-08-19T13:09:03.171Z,6.45
2022-08-19T13:11:34.945Z,6.08
2022-08-19T13:14:07.709Z,6.37
2022-08-19T13:16:39.696Z,6.08
2022-08-19T13:19:11.010Z,5.92
2022-08-19T13:21:42.640Z,5.90
2022-08-19T13:24:13.732Z,5.72
2022-08-19T13:26:45.245Z,6.10
2022-08-19T13:29:34.453Z,6.35
2022-08-19T13:32:23.832Z,6.05
2022-08-19T13:34:54.980Z,6.03
2022-08-19T13:37:44.453Z,5.37
2022-08-19T13:40:25.384Z,5.80
2022-08-19T13:42:58.809Z,5.10
2022-08-19T13:45:33.255Z,5.28
2022-08-19T13:48:08.084Z,5.40
2022-08-19T13:50:44.822Z,5.65
2022-08-19T13:53:16.477Z,4.97
2022-08-19T13:55:47.989Z,4.80
2022-08-19T13:58:19.103Z,5.00
2022-08-19T14:00:51.135Z,4.83
2022-08-19T14:03:22.249Z,4.62
2022-08-19T14:05:53.620Z,5.12
2022-08-19T14:08:24.773Z,4.67
2022-08-19T14:10:56.182Z,4.85
2022-08-19T14:13:27.681Z,4.50
2022-08-19T14:16:00.231Z,4.62
2022-08-19T14:18:31.603Z,4.90
2022-08-19T14:21:02.996Z,4.80
2022-08-19T14:23:34.949Z,4.90
2022-08-19T14:26:11.409Z,4.87
2022-08-19T14:28:43.388Z,5.10
2022-08-19T14:31:17.807Z,5.10
2022-08-19T14:33:51.768Z,4.60
2022-08-19T14:36:23.419Z,4.40
2022-08-19T14:38:54.628Z,4.55
2022-08-19T14:41:25.992Z,4.37
2022-08-19T14:44:33.962Z,4.12
2022-08-19T14:50:32.574Z,5.15
2022-08-19T14:53:12.236Z,4.80
2022-08-19T14:55:45.613Z,4.58
2022-08-19T14:58:29.583Z,4.65
2022-08-19T15:01:03.543Z,4.33
2022-08-19T15:03:37.910Z,5.40
2022-08-19T15:06:12.561Z,4.72
2022-08-19T15:08:46.302Z,4.28
2022-08-19T15:11:24.412Z,3.90
2022-08-19T15:13:56.064Z,4.53
2022-08-19T15:16:35.772Z,4.37
2022-08-19T15:19:07.324Z,4.37
2022-08-19T15:21:38.855Z,4.28
2022-08-19T15:24:11.142Z,4.37
2022-08-19T15:26:44.456Z,4.40
2022-08-19T15:29:16.857Z,4.22
2022-08-19T15:31:48.126Z,4.08
2022-08-19T15:34:20.128Z,4.03
2022-08-19T15:36:51.779Z,3.87
2022-08-19T15:39:24.178Z,3.85
2022-08-19T15:41:55.330Z,3.80
2022-08-19T15:44:27.984Z,3.70
2022-08-19T15:47:00.652Z,3.90
2022-08-19T15:49:31.684Z,3.72
2022-08-19T15:52:03.017Z,3.67
2022-08-19T15:54:34.153Z,3.90
2022-08-19T15:57:23.061Z,3.83
2022-08-19T16:00:12.542Z,4.20
2022-08-19T16:03:01.402Z,4.03
2022-08-19T16:05:51.041Z,3.98
2022-08-19T16:08:21.998Z,4.40
2022-08-19T16:10:52.982Z,3.85
2022-08-19T16:13:25.424Z,4.05
2022-08-19T16:15:58.005Z,4.05
2022-08-19T16:18:47.648Z,4.05
2022-08-19T16:21:18.862Z,4.22
2022-08-19T16:23:51.933Z,4.30
2022-08-19T16:26:22.902Z,4.35
2022-08-19T16:28:57.764Z,4.12
2022-08-19T16:31:30.755Z,4.20
2022-08-19T16:34:02.210Z,4.67
2022-08-19T16:36:34.617Z,4.40
2022-08-19T16:39:05.775Z,4.58
2022-08-19T16:41:37.859Z,4.50
2022-08-19T16:44:11.000Z,4.70
2022-08-19T16:46:42.589Z,4.60
2022-08-19T16:49:13.798Z,4.40
2022-08-19T16:51:45.939Z,4.37
2022-08-19T16:54:17.758Z,4.53
2022-08-19T16:56:50.246Z,4.85
2022-08-19T16:59:21.286Z,8.35
2022-08-19T17:01:53.202Z,4.97
2022-08-19T17:04:24.433Z,5.25
2022-08-19T17:06:57.031Z,4.62
2022-08-19T17:09:27.818Z,5.08
2022-08-19T17:12:00.515Z,4.62
2022-08-19T17:14:31.556Z,4.80
2022-08-19T17:17:02.717Z,5.00
2022-08-19T17:19:33.966Z,4.90
2022-08-19T17:22:05.465Z,5.03
2022-08-19T17:24:36.712Z,5.17
2022-08-19T17:27:08.268Z,5.30
2022-08-19T17:29:39.947Z,5.67
2022-08-19T17:32:12.352Z,4.83
2022-08-19T17:34:43.378Z,5.47
2022-08-19T17:37:16.191Z,5.62
2022-08-19T17:39:48.660Z,5.62
2022-08-19T17:42:20.892Z,5.62
2022-08-19T17:44:53.493Z,6.05
2022-08-19T17:47:27.355Z,5.25
2022-08-19T17:49:58.361Z,5.53
2022-08-19T17:52:30.887Z,6.15
2022-08-19T17:55:02.338Z,5.60
2022-08-19T17:57:33.580Z,5.95
2022-08-19T18:00:06.168Z,5.83
2022-08-19T18:02:46.866Z,6.15
2022-08-19T18:05:18.696Z,6.12
2022-08-19T18:07:52.650Z,7.58
2022-08-19T18:10:30.830Z,7.62
2022-08-19T18:13:02.342Z,8.93
2022-08-19T18:15:35.263Z,8.23
2022-08-19T18:18:11.750Z,7.97
2022-08-19T18:20:41.112Z,9.48
2022-08-19T18:23:44.676Z,10.25
2022-08-19T18:25:45.454Z,10.20
2022-08-19T18:28:16.676Z,11.80
2022-08-19T18:30:51.006Z,10.82
2022-08-19T18:33:22.056Z,10.85
2022-08-19T18:35:53.615Z,10.93
2022-08-19T18:38:43.398Z,11.08
2022-08-19T18:41:32.483Z,12.45
2022-08-19T18:44:21.520Z,12.15
2022-08-19T18:47:10.896Z,12.47
2022-08-19T18:49:41.990Z,13.65
2022-08-19T18:52:13.025Z,13.78
2022-08-19T18:54:45.650Z,13.35
2022-08-19T18:57:17.165Z,13.53
2022-08-19T18:59:48.899Z,13.80
2022-08-19T19:02:20.578Z,17.87
2022-08-19T19:04:52.199Z,14.28
2022-08-19T19:07:23.804Z,13.70
2022-08-19T19:09:56.344Z,16.93
2022-08-19T19:12:29.753Z,13.58
2022-08-19T19:15:02.279Z,13.48
2022-08-19T19:17:33.921Z,13.90
2022-08-19T19:20:06.489Z,13.38
2022-08-19T19:22:37.729Z,12.93
2022-08-19T19:25:09.248Z,13.03
2022-08-19T19:27:40.919Z,12.82
2022-08-19T19:30:14.129Z,14.05
2022-08-19T19:32:46.777Z,13.08
2022-08-19T19:35:19.950Z,13.30
2022-08-19T19:37:53.607Z,13.13
2022-08-19T19:40:25.329Z,13.45
2022-08-19T19:42:56.688Z,12.37
2022-08-19T19:45:28.547Z,13.20
2022-08-19T19:48:01.066Z,13.85
2022-08-19T19:50:32.417Z,13.30
2022-08-19T19:53:03.842Z,13.70
2022-08-19T19:55:35.117Z,13.48
2022-08-19T19:58:07.535Z,13.78
2022-08-19T20:00:39.119Z,13.90
2022-08-19T20:03:10.893Z,13.60
2022-08-19T20:05:42.317Z,14.03
2022-08-19T20:08:31.510Z,13.40
2022-08-19T20:11:07.935Z,13.08
2022-08-19T20:13:40.717Z,13.05
2022-08-19T20:16:13.788Z,13.70
2022-08-19T20:18:45.528Z,13.18
2022-08-19T20:21:17.146Z,15.65
2022-08-19T20:24:08.971Z,14.95
2022-08-19T20:26:32.310Z,13.90
2022-08-19T20:29:07.262Z,13.38
2022-08-19T20:31:29.832Z,13.93
2022-08-19T20:34:02.827Z,15.08
2022-08-19T20:36:34.929Z,14.13
2022-08-19T20:39:07.228Z,13.62
2022-08-19T20:41:38.543Z,14.13
2022-08-19T20:44:10.277Z,14.35
2022-08-19T20:46:42.748Z,14.07
2022-08-19T20:49:17.131Z,14.87
2022-08-19T20:51:48.012Z,14.03
2022-08-19T20:54:19.229Z,14.28
2022-08-19T20:56:50.377Z,14.40
2022-08-19T20:59:22.029Z,14.68
2022-08-19T21:01:54.720Z,14.73
2022-08-19T21:04:25.929Z,14.65
2022-08-19T21:06:58.393Z,15.60
2022-08-19T21:09:29.688Z,16.65
2022-08-19T21:12:01.190Z,15.63
2022-08-19T21:14:32.725Z,16.95
2022-08-19T21:17:03.830Z,18.77
2022-08-19T21:19:34.788Z,20.52
2022-08-19T21:22:06.440Z,18.60
2022-08-19T21:24:38.795Z,16.05
2022-08-19T21:27:11.573Z,17.35
2022-08-19T21:29:42.635Z,16.15
2022-08-19T21:32:14.387Z,15.38
2022-08-19T21:34:47.408Z,15.95
2022-08-19T21:37:25.287Z,16.07
2022-08-19T21:39:53.471Z,15.98
2022-08-19T21:42:25.315Z,16.23
2022-08-19T21:44:56.359Z,15.55
2022-08-19T21:47:28.740Z,15.72
2022-08-19T21:49:59.674Z,15.45
2022-08-19T21:52:31.113Z,16.40
2022-08-19T21:55:02.309Z,16.17
2022-08-19T21:57:33.870Z,17.73
2022-08-19T22:00:07.772Z,16.97
2022-08-19T22:02:40.032Z,16.95
2022-08-19T22:05:11.319Z,16.07
2022-08-19T22:07:43.318Z,17.17
2022-08-19T22:10:14.498Z,17.27
2022-08-19T22:12:51.512Z,17.87
2022-08-19T22:15:21.641Z,18.45
2022-08-19T22:17:52.872Z,19.30
2022-08-19T22:20:27.439Z,19.15
2022-08-19T22:23:02.579Z,18.45
2022-08-19T22:25:36.581Z,19.02
2022-08-19T22:28:10.952Z,18.82
2022-08-19T22:33:22.029Z,21.65
2022-08-19T22:35:54.478Z,21.10
2022-08-19T22:38:26.111Z,20.77
2022-08-19T22:40:57.909Z,19.85
2022-08-19T22:43:32.142Z,19.92
2022-08-19T22:46:05.223Z,19.55
2022-08-19T22:48:36.790Z,23.70
2022-08-19T22:51:25.842Z,22.65
2022-08-19T22:53:58.528Z,26.75
2022-08-19T22:56:29.827Z,26.35
2022-08-19T22:59:00.755Z,29.05
2022-08-19T23:01:33.101Z,29.35
2022-08-19T23:04:05.932Z,27.35
2022-08-19T23:06:41.427Z,24.87
2022-08-19T23:09:10.875Z,23.52
2022-08-19T23:11:43.414Z,23.15
2022-08-19T23:14:15.423Z,23.38
2022-08-19T23:16:51.075Z,21.65
2022-08-19T23:19:22.101Z,23.60
2022-08-19T23:21:54.151Z,23.83
2022-08-19T23:24:25.452Z,22.00
2022-08-19T23:27:14.440Z,22.77
2022-08-19T23:30:03.360Z,22.62
2022-08-19T23:32:36.872Z,21.50
2022-08-19T23:35:08.705Z,20.85
2022-08-19T23:37:39.807Z,22.25
2022-08-19T23:40:11.555Z,21.30
2022-08-19T23:42:45.709Z,21.75
2022-08-19T23:45:23.552Z,22.05
2022-08-19T23:47:50.226Z,20.90
2022-08-19T23:50:21.772Z,20.88
2022-08-19T23:52:55.469Z,21.12
2022-08-19T23:55:32.603Z,20.80
2022-08-19T23:58:07.187Z,20.25
